sensor_id;sensor_type;location;lat;lon;timestamp;pressure;altitude;pressure_sealevel;temperature;humidity
51067;BME280;37112;45.892;-123.962;2024-03-22T00:00:56;101674.14;;;13.88;87.17
51067;BME280;37112;45.892;-123.962;2024-03-22T00:03:21;101673.31;;;13.90;86.97
51067;BME280;37112;45.892;-123.962;2024-03-22T00:06:06;101667.48;;;13.86;85.43
51067;BME280;37112;45.892;-123.962;2024-03-22T00:08:42;101670.48;;;13.84;86.36
51067;BME280;37112;45.892;-123.962;2024-03-22T00:11:15;101668.98;;;13.80;85.77
51067;BME280;37112;45.892;-123.962;2024-03-22T00:14:09;101664.23;;;13.76;85.71
51067;BME280;37112;45.892;-123.962;2024-03-22T00:16:43;101667.70;;;13.72;85.37
51067;BME280;37112;45.892;-123.962;2024-03-22T00:19:17;101663.02;;;13.70;85.45
51067;BME280;37112;45.892;-123.962;2024-03-22T00:21:51;101665.55;;;13.67;85.36
51067;BME280;37112;45.892;-123.962;2024-03-22T00:24:24;101667.15;;;13.67;85.08
51067;BME280;37112;45.892;-123.962;2024-03-22T00:26:58;101669.67;;;13.64;84.72
51067;BME280;37112;45.892;-123.962;2024-03-22T00:29:34;101667.73;;;13.58;83.82
51067;BME280;37112;45.892;-123.962;2024-03-22T00:32:07;101667.86;;;13.53;83.98
51067;BME280;37112;45.892;-123.962;2024-03-22T00:34:30;101659.28;;;13.51;84.39
51067;BME280;37112;45.892;-123.962;2024-03-22T00:37:15;101658.72;;;13.51;84.74
51067;BME280;37112;45.892;-123.962;2024-03-22T00:39:51;101655.92;;;13.50;84.66
51067;BME280;37112;45.892;-123.962;2024-03-22T00:42:24;101655.40;;;13.50;84.95
51067;BME280;37112;45.892;-123.962;2024-03-22T00:45:00;101651.08;;;13.48;84.54
51067;BME280;37112;45.892;-123.962;2024-03-22T00:47:34;101644.86;;;13.45;84.67
51067;BME280;37112;45.892;-123.962;2024-03-22T00:50:00;101641.75;;;13.43;84.53
51067;BME280;37112;45.892;-123.962;2024-03-22T00:52:33;101642.35;;;13.42;84.70
51067;BME280;37112;45.892;-123.962;2024-03-22T00:55:07;101639.38;;;13.44;85.00
51067;BME280;37112;45.892;-123.962;2024-03-22T00:57:51;101641.55;;;13.47;85.05
51067;BME280;37112;45.892;-123.962;2024-03-22T01:00:29;101642.54;;;13.48;85.08
51067;BME280;37112;45.892;-123.962;2024-03-22T01:05:48;101635.77;;;13.44;84.56
51067;BME280;37112;45.892;-123.962;2024-03-22T01:08:22;101633.25;;;13.42;84.14
51067;BME280;37112;45.892;-123.962;2024-03-22T01:10:55;101632.16;;;13.37;83.95
51067;BME280;37112;45.892;-123.962;2024-03-22T01:16:00;101630.62;;;13.30;84.31
51067;BME280;37112;45.892;-123.962;2024-03-22T01:18:30;101627.71;;;13.29;84.62
51067;BME280;37112;45.892;-123.962;2024-03-22T01:21:03;101625.59;;;13.26;84.48
51067;BME280;37112;45.892;-123.962;2024-03-22T01:23:31;101624.80;;;13.24;84.71
51067;BME280;37112;45.892;-123.962;2024-03-22T01:26:04;101622.72;;;13.23;84.65
51067;BME280;37112;45.892;-123.962;2024-03-22T01:28:37;101621.59;;;13.21;84.82
51067;BME280;37112;45.892;-123.962;2024-03-22T01:31:11;101617.77;;;13.20;85.07
51067;BME280;37112;45.892;-123.962;2024-03-22T01:33:44;101618.98;;;13.20;85.32
51067;BME280;37112;45.892;-123.962;2024-03-22T01:36:17;101620.72;;;13.18;85.27
51067;BME280;37112;45.892;-123.962;2024-03-22T01:38:51;101621.30;;;13.14;85.24
51067;BME280;37112;45.892;-123.962;2024-03-22T01:41:26;101618.86;;;13.10;85.35
51067;BME280;37112;45.892;-123.962;2024-03-22T01:44:00;101617.59;;;13.11;85.81
51067;BME280;37112;45.892;-123.962;2024-03-22T01:46:34;101616.98;;;13.10;85.81
51067;BME280;37112;45.892;-123.962;2024-03-22T01:49:11;101612.73;;;13.06;85.80
51067;BME280;37112;45.892;-123.962;2024-03-22T01:51:46;101612.13;;;13.01;85.69
51067;BME280;37112;45.892;-123.962;2024-03-22T01:54:25;101612.12;;;12.99;85.95
51067;BME280;37112;45.892;-123.962;2024-03-22T01:56:58;101615.95;;;12.97;85.96
51067;BME280;37112;45.892;-123.962;2024-03-22T01:59:32;101617.41;;;12.94;86.18
51067;BME280;37112;45.892;-123.962;2024-03-22T02:02:07;101619.02;;;12.91;86.06
51067;BME280;37112;45.892;-123.962;2024-03-22T02:04:27;101618.95;;;12.90;86.38
51067;BME280;37112;45.892;-123.962;2024-03-22T02:07:00;101618.03;;;12.87;86.31
51067;BME280;37112;45.892;-123.962;2024-03-22T02:09:34;101619.02;;;12.83;86.75
51067;BME280;37112;45.892;-123.962;2024-03-22T02:12:11;101621.03;;;12.79;86.67
51067;BME280;37112;45.892;-123.962;2024-03-22T02:14:44;101618.94;;;12.75;87.02
51067;BME280;37112;45.892;-123.962;2024-03-22T02:17:18;101613.75;;;12.73;87.18
51067;BME280;37112;45.892;-123.962;2024-03-22T02:19:51;101613.83;;;12.69;87.23
51067;BME280;37112;45.892;-123.962;2024-03-22T02:22:25;101614.30;;;12.64;87.57
51067;BME280;37112;45.892;-123.962;2024-03-22T02:25:01;101607.27;;;12.60;87.70
51067;BME280;37112;45.892;-123.962;2024-03-22T02:27:31;101606.60;;;12.53;87.65
51067;BME280;37112;45.892;-123.962;2024-03-22T02:30:05;101607.30;;;12.48;87.74
51067;BME280;37112;45.892;-123.962;2024-03-22T02:32:46;101610.39;;;12.44;87.74
51067;BME280;37112;45.892;-123.962;2024-03-22T02:35:39;101606.27;;;12.41;88.10
51067;BME280;37112;45.892;-123.962;2024-03-22T02:38:15;101608.53;;;12.39;88.03
51067;BME280;37112;45.892;-123.962;2024-03-22T02:40:38;101609.34;;;12.38;87.99
51067;BME280;37112;45.892;-123.962;2024-03-22T02:43:11;101606.41;;;12.36;88.15
51067;BME280;37112;45.892;-123.962;2024-03-22T02:48:44;101605.86;;;12.33;88.11
51067;BME280;37112;45.892;-123.962;2024-03-22T02:51:20;101607.27;;;12.31;88.12
51067;BME280;37112;45.892;-123.962;2024-03-22T02:53:57;101609.02;;;12.28;88.07
51067;BME280;37112;45.892;-123.962;2024-03-22T02:56:37;101609.70;;;12.26;88.28
51067;BME280;37112;45.892;-123.962;2024-03-22T02:59:21;101611.33;;;12.22;88.15
51067;BME280;37112;45.892;-123.962;2024-03-22T03:02:07;101610.52;;;12.21;88.41
51067;BME280;37112;45.892;-123.962;2024-03-22T03:04:21;101607.92;;;12.20;88.42
51067;BME280;37112;45.892;-123.962;2024-03-22T03:06:34;101611.27;;;12.18;88.38
51067;BME280;37112;45.892;-123.962;2024-03-22T03:08:47;101608.16;;;12.16;88.56
51067;BME280;37112;45.892;-123.962;2024-03-22T03:10:59;101610.34;;;12.15;88.65
51067;BME280;37112;45.892;-123.962;2024-03-22T03:13:12;101612.59;;;12.16;88.77
51067;BME280;37112;45.892;-123.962;2024-03-22T03:15:25;101609.96;;;12.16;88.88
51067;BME280;37112;45.892;-123.962;2024-03-22T03:17:37;101611.83;;;12.14;88.78
51067;BME280;37112;45.892;-123.962;2024-03-22T03:19:51;101612.02;;;12.14;88.85
51067;BME280;37112;45.892;-123.962;2024-03-22T03:22:04;101610.08;;;12.14;88.88
51067;BME280;37112;45.892;-123.962;2024-03-22T03:24:16;101608.75;;;12.12;88.87
51067;BME280;37112;45.892;-123.962;2024-03-22T03:26:29;101609.64;;;12.12;88.89
51067;BME280;37112;45.892;-123.962;2024-03-22T03:28:42;101609.00;;;12.11;88.82
51067;BME280;37112;45.892;-123.962;2024-03-22T03:30:54;101607.66;;;12.10;88.92
51067;BME280;37112;45.892;-123.962;2024-03-22T03:33:04;101610.73;;;12.09;88.86
51067;BME280;37112;45.892;-123.962;2024-03-22T03:35:18;101615.63;;;12.08;89.00
51067;BME280;37112;45.892;-123.962;2024-03-22T03:37:30;101618.87;;;12.07;88.94
51067;BME280;37112;45.892;-123.962;2024-03-22T03:39:43;101621.55;;;12.07;89.11
51067;BME280;37112;45.892;-123.962;2024-03-22T03:41:56;101621.74;;;12.07;89.05
51067;BME280;37112;45.892;-123.962;2024-03-22T03:44:08;101618.80;;;12.05;89.04
51067;BME280;37112;45.892;-123.962;2024-03-22T03:46:21;101612.23;;;12.02;88.99
51067;BME280;37112;45.892;-123.962;2024-03-22T03:48:34;101608.55;;;12.01;89.02
51067;BME280;37112;45.892;-123.962;2024-03-22T03:50:54;101608.79;;;11.99;89.07
51067;BME280;37112;45.892;-123.962;2024-03-22T03:53:09;101605.88;;;11.97;89.17
51067;BME280;37112;45.892;-123.962;2024-03-22T03:55:22;101601.86;;;11.96;89.33
51067;BME280;37112;45.892;-123.962;2024-03-22T03:57:35;101599.53;;;11.96;89.38
51067;BME280;37112;45.892;-123.962;2024-03-22T03:59:48;101595.78;;;11.97;89.51
51067;BME280;37112;45.892;-123.962;2024-03-22T04:02:02;101605.95;;;11.96;89.43
51067;BME280;37112;45.892;-123.962;2024-03-22T04:04:14;101603.16;;;11.95;89.49
51067;BME280;37112;45.892;-123.962;2024-03-22T04:06:27;101605.33;;;11.95;89.50
51067;BME280;37112;45.892;-123.962;2024-03-22T04:08:40;101608.54;;;11.95;89.57
51067;BME280;37112;45.892;-123.962;2024-03-22T04:10:56;101603.90;;;11.95;89.56
51067;BME280;37112;45.892;-123.962;2024-03-22T04:13:08;101604.25;;;11.95;89.81
51067;BME280;37112;45.892;-123.962;2024-03-22T04:15:21;101603.35;;;11.95;89.69
51067;BME280;37112;45.892;-123.962;2024-03-22T04:17:34;101601.19;;;11.95;89.87
51067;BME280;37112;45.892;-123.962;2024-03-22T04:19:43;101602.26;;;11.95;89.77
51067;BME280;37112;45.892;-123.962;2024-03-22T04:21:56;101598.39;;;11.94;89.80
51067;BME280;37112;45.892;-123.962;2024-03-22T04:24:06;101604.23;;;11.95;89.75
51067;BME280;37112;45.892;-123.962;2024-03-22T04:26:19;101605.54;;;11.94;89.80
51067;BME280;37112;45.892;-123.962;2024-03-22T04:28:31;101605.98;;;11.93;89.78
51067;BME280;37112;45.892;-123.962;2024-03-22T04:30:44;101604.97;;;11.92;89.86
51067;BME280;37112;45.892;-123.962;2024-03-22T04:33:06;101603.61;;;11.91;89.80
51067;BME280;37112;45.892;-123.962;2024-03-22T04:35:20;101597.97;;;11.90;89.83
51067;BME280;37112;45.892;-123.962;2024-03-22T04:37:33;101594.70;;;11.88;89.88
51067;BME280;37112;45.892;-123.962;2024-03-22T04:39:48;101596.52;;;11.84;89.64
51067;BME280;37112;45.892;-123.962;2024-03-22T04:42:01;101601.00;;;11.80;89.57
51067;BME280;37112;45.892;-123.962;2024-03-22T04:44:14;101596.08;;;11.79;89.84
51067;BME280;37112;45.892;-123.962;2024-03-22T04:46:27;101590.64;;;11.78;89.75
51067;BME280;37112;45.892;-123.962;2024-03-22T04:48:41;101593.21;;;11.76;89.98
51067;BME280;37112;45.892;-123.962;2024-03-22T04:50:53;101589.33;;;11.76;90.06
51067;BME280;37112;45.892;-123.962;2024-03-22T04:53:06;101585.13;;;11.75;90.08
51067;BME280;37112;45.892;-123.962;2024-03-22T04:55:19;101580.09;;;11.72;90.17
51067;BME280;37112;45.892;-123.962;2024-03-22T04:57:32;101582.70;;;11.70;90.25
51067;BME280;37112;45.892;-123.962;2024-03-22T04:59:41;101578.89;;;11.69;90.13
51067;BME280;37112;45.892;-123.962;2024-03-22T05:01:54;101577.08;;;11.66;90.34
51067;BME280;37112;45.892;-123.962;2024-03-22T05:04:09;101577.90;;;11.64;90.48
51067;BME280;37112;45.892;-123.962;2024-03-22T05:06:23;101580.04;;;11.62;90.46
51067;BME280;37112;45.892;-123.962;2024-03-22T05:08:35;101582.63;;;11.59;90.68
51067;BME280;37112;45.892;-123.962;2024-03-22T05:10:48;101580.90;;;11.58;90.71
51067;BME280;37112;45.892;-123.962;2024-03-22T05:13:01;101577.95;;;11.57;90.66
51067;BME280;37112;45.892;-123.962;2024-03-22T05:15:11;101570.61;;;11.55;90.65
51067;BME280;37112;45.892;-123.962;2024-03-22T05:17:24;101568.27;;;11.53;90.78
51067;BME280;37112;45.892;-123.962;2024-03-22T05:19:36;101564.00;;;11.50;90.69
51067;BME280;37112;45.892;-123.962;2024-03-22T05:21:49;101564.45;;;11.48;90.72
51067;BME280;37112;45.892;-123.962;2024-03-22T05:24:02;101569.73;;;11.46;90.76
51067;BME280;37112;45.892;-123.962;2024-03-22T05:26:14;101567.80;;;11.45;91.03
51067;BME280;37112;45.892;-123.962;2024-03-22T05:28:28;101564.83;;;11.45;90.91
51067;BME280;37112;45.892;-123.962;2024-03-22T05:30:42;101564.70;;;11.44;91.15
51067;BME280;37112;45.892;-123.962;2024-03-22T05:32:55;101564.60;;;11.42;90.98
51067;BME280;37112;45.892;-123.962;2024-03-22T05:35:08;101567.05;;;11.40;91.14
51067;BME280;37112;45.892;-123.962;2024-03-22T05:37:21;101566.14;;;11.37;91.30
51067;BME280;37112;45.892;-123.962;2024-03-22T05:39:34;101562.97;;;11.37;91.49
51067;BME280;37112;45.892;-123.962;2024-03-22T05:41:47;101559.94;;;11.37;91.58
51067;BME280;37112;45.892;-123.962;2024-03-22T05:44:00;101561.92;;;11.33;91.32
51067;BME280;37112;45.892;-123.962;2024-03-22T05:46:13;101557.70;;;11.29;91.30
51067;BME280;37112;45.892;-123.962;2024-03-22T05:48:26;101555.60;;;11.28;91.55
51067;BME280;37112;45.892;-123.962;2024-03-22T05:50:39;101559.21;;;11.28;91.59
51067;BME280;37112;45.892;-123.962;2024-03-22T05:52:53;101561.87;;;11.27;91.91
51067;BME280;37112;45.892;-123.962;2024-03-22T05:55:07;101555.20;;;11.26;91.82
51067;BME280;37112;45.892;-123.962;2024-03-22T05:57:19;101556.77;;;11.24;91.97
51067;BME280;37112;45.892;-123.962;2024-03-22T05:59:29;101555.71;;;11.24;92.17
51067;BME280;37112;45.892;-123.962;2024-03-22T06:01:42;101554.86;;;11.23;92.49
51067;BME280;37112;45.892;-123.962;2024-03-22T06:03:52;101552.59;;;11.22;92.22
51067;BME280;37112;45.892;-123.962;2024-03-22T06:06:05;101552.94;;;11.19;92.21
51067;BME280;37112;45.892;-123.962;2024-03-22T06:08:17;101547.58;;;11.17;92.13
51067;BME280;37112;45.892;-123.962;2024-03-22T06:10:31;101546.45;;;11.14;92.13
51067;BME280;37112;45.892;-123.962;2024-03-22T06:12:44;101547.81;;;11.13;92.32
51067;BME280;37112;45.892;-123.962;2024-03-22T06:14:57;101547.30;;;11.12;92.54
51067;BME280;37112;45.892;-123.962;2024-03-22T06:17:10;101543.64;;;11.11;92.42
51067;BME280;37112;45.892;-123.962;2024-03-22T06:19:22;101537.00;;;11.09;92.31
51067;BME280;37112;45.892;-123.962;2024-03-22T06:21:36;101531.60;;;11.07;92.49
51067;BME280;37112;45.892;-123.962;2024-03-22T06:23:49;101523.33;;;11.06;92.44
51067;BME280;37112;45.892;-123.962;2024-03-22T06:26:02;101513.23;;;11.05;92.59
51067;BME280;37112;45.892;-123.962;2024-03-22T06:28:12;101506.67;;;11.04;92.67
51067;BME280;37112;45.892;-123.962;2024-03-22T06:30:24;101497.67;;;11.03;92.80
51067;BME280;37112;45.892;-123.962;2024-03-22T06:32:37;101490.90;;;11.01;92.56
51067;BME280;37112;45.892;-123.962;2024-03-22T06:34:50;101492.13;;;10.98;92.75
51067;BME280;37112;45.892;-123.962;2024-03-22T06:37:03;101492.73;;;10.97;92.78
51067;BME280;37112;45.892;-123.962;2024-03-22T06:39:16;101490.60;;;10.94;92.55
51067;BME280;37112;45.892;-123.962;2024-03-22T06:41:30;101479.71;;;10.88;92.21
51067;BME280;37112;45.892;-123.962;2024-03-22T06:43:43;101478.65;;;10.82;92.14
51067;BME280;37112;45.892;-123.962;2024-03-22T06:45:57;101478.64;;;10.76;92.05
51067;BME280;37112;45.892;-123.962;2024-03-22T06:48:10;101480.62;;;10.72;92.29
51067;BME280;37112;45.892;-123.962;2024-03-22T06:50:28;101483.09;;;10.69;92.44
51067;BME280;37112;45.892;-123.962;2024-03-22T06:52:40;101481.31;;;10.66;92.33
51067;BME280;37112;45.892;-123.962;2024-03-22T06:54:53;101474.04;;;10.63;92.54
51067;BME280;37112;45.892;-123.962;2024-03-22T06:57:03;101467.25;;;10.61;92.67
51067;BME280;37112;45.892;-123.962;2024-03-22T06:59:16;101463.49;;;10.57;92.80
51067;BME280;37112;45.892;-123.962;2024-03-22T07:01:28;101468.51;;;10.56;93.16
51067;BME280;37112;45.892;-123.962;2024-03-22T07:03:41;101466.08;;;10.55;93.19
51067;BME280;37112;45.892;-123.962;2024-03-22T07:05:55;101469.36;;;10.54;93.14
51067;BME280;37112;45.892;-123.962;2024-03-22T07:08:09;101464.47;;;10.53;93.41
51067;BME280;37112;45.892;-123.962;2024-03-22T07:10:22;101467.94;;;10.51;93.08
51067;BME280;37112;45.892;-123.962;2024-03-22T07:12:38;101473.71;;;10.49;93.28
51067;BME280;37112;45.892;-123.962;2024-03-22T07:14:51;101468.30;;;10.48;93.30
51067;BME280;37112;45.892;-123.962;2024-03-22T07:17:03;101470.68;;;10.46;93.40
51067;BME280;37112;45.892;-123.962;2024-03-22T07:19:17;101454.44;;;10.45;93.57
51067;BME280;37112;45.892;-123.962;2024-03-22T07:21:30;101452.42;;;10.43;93.45
51067;BME280;37112;45.892;-123.962;2024-03-22T07:23:43;101448.21;;;10.42;93.48
51067;BME280;37112;45.892;-123.962;2024-03-22T07:25:56;101452.52;;;10.41;93.50
51067;BME280;37112;45.892;-123.962;2024-03-22T07:28:11;101454.96;;;10.39;93.47
51067;BME280;37112;45.892;-123.962;2024-03-22T07:30:24;101451.65;;;10.38;93.42
51067;BME280;37112;45.892;-123.962;2024-03-22T07:32:37;101448.39;;;10.36;93.56
51067;BME280;37112;45.892;-123.962;2024-03-22T07:34:52;101446.17;;;10.33;93.50
51067;BME280;37112;45.892;-123.962;2024-03-22T07:37:05;101445.73;;;10.31;93.57
51067;BME280;37112;45.892;-123.962;2024-03-22T07:39:32;101450.04;;;10.31;93.73
51067;BME280;37112;45.892;-123.962;2024-03-22T07:41:45;101449.58;;;10.29;93.62
51067;BME280;37112;45.892;-123.962;2024-03-22T07:44:08;101443.28;;;10.28;93.72
51067;BME280;37112;45.892;-123.962;2024-03-22T07:46:18;101435.87;;;10.28;93.76
51067;BME280;37112;45.892;-123.962;2024-03-22T07:48:31;101429.41;;;10.25;93.90
51067;BME280;37112;45.892;-123.962;2024-03-22T07:50:41;101428.16;;;10.22;93.98
51067;BME280;37112;45.892;-123.962;2024-03-22T07:52:54;101428.66;;;10.19;93.98
51067;BME280;37112;45.892;-123.962;2024-03-22T07:55:09;101424.15;;;10.17;94.03
51067;BME280;37112;45.892;-123.962;2024-03-22T07:57:22;101422.98;;;10.16;93.87
51067;BME280;37112;45.892;-123.962;2024-03-22T07:59:34;101420.24;;;10.14;93.89
51067;BME280;37112;45.892;-123.962;2024-03-22T08:01:49;101417.15;;;10.12;93.93
51067;BME280;37112;45.892;-123.962;2024-03-22T08:04:01;101424.52;;;10.10;93.83
51067;BME280;37112;45.892;-123.962;2024-03-22T08:06:14;101424.44;;;10.09;94.02
51067;BME280;37112;45.892;-123.962;2024-03-22T08:08:27;101419.52;;;10.08;94.25
51067;BME280;37112;45.892;-123.962;2024-03-22T08:10:39;101412.14;;;10.07;94.36
51067;BME280;37112;45.892;-123.962;2024-03-22T08:12:53;101411.63;;;10.06;94.48
51067;BME280;37112;45.892;-123.962;2024-03-22T08:15:08;101411.69;;;10.05;94.32
51067;BME280;37112;45.892;-123.962;2024-03-22T08:17:21;101414.04;;;10.04;94.42
51067;BME280;37112;45.892;-123.962;2024-03-22T08:19:33;101411.44;;;10.03;94.40
51067;BME280;37112;45.892;-123.962;2024-03-22T08:21:46;101406.64;;;10.03;94.49
51067;BME280;37112;45.892;-123.962;2024-03-22T08:23:59;101404.02;;;10.02;94.41
51067;BME280;37112;45.892;-123.962;2024-03-22T08:26:12;101404.58;;;10.01;94.38
51067;BME280;37112;45.892;-123.962;2024-03-22T08:28:25;101409.20;;;10.02;94.33
51067;BME280;37112;45.892;-123.962;2024-03-22T08:30:47;101411.73;;;10.01;94.35
51067;BME280;37112;45.892;-123.962;2024-03-22T08:33:01;101413.52;;;10.00;94.35
51067;BME280;37112;45.892;-123.962;2024-03-22T08:35:14;101423.74;;;10.01;94.60
51067;BME280;37112;45.892;-123.962;2024-03-22T08:37:27;101424.02;;;10.03;94.74
51067;BME280;37112;45.892;-123.962;2024-03-22T08:39:39;101427.67;;;10.05;94.79
51067;BME280;37112;45.892;-123.962;2024-03-22T08:41:53;101431.97;;;10.07;94.79
51067;BME280;37112;45.892;-123.962;2024-03-22T08:44:06;101429.39;;;10.09;94.77
51067;BME280;37112;45.892;-123.962;2024-03-22T08:46:19;101415.80;;;10.11;94.78
51067;BME280;37112;45.892;-123.962;2024-03-22T08:48:33;101406.02;;;10.11;94.68
51067;BME280;37112;45.892;-123.962;2024-03-22T08:50:47;101400.34;;;10.11;94.57
51067;BME280;37112;45.892;-123.962;2024-03-22T08:53:00;101404.61;;;10.11;94.50
51067;BME280;37112;45.892;-123.962;2024-03-22T08:55:15;101404.81;;;10.10;94.29
51067;BME280;37112;45.892;-123.962;2024-03-22T08:57:27;101409.58;;;10.11;94.06
51067;BME280;37112;45.892;-123.962;2024-03-22T08:59:37;101406.98;;;10.09;94.05
51067;BME280;37112;45.892;-123.962;2024-03-22T09:01:50;101397.92;;;10.07;93.68
51067;BME280;37112;45.892;-123.962;2024-03-22T09:04:00;101393.13;;;10.03;93.44
51067;BME280;37112;45.892;-123.962;2024-03-22T09:06:13;101389.16;;;9.98;93.26
51067;BME280;37112;45.892;-123.962;2024-03-22T09:08:25;101380.88;;;9.94;93.07
51067;BME280;37112;45.892;-123.962;2024-03-22T09:10:39;101383.20;;;9.91;93.10
51067;BME280;37112;45.892;-123.962;2024-03-22T09:12:49;101381.95;;;9.87;92.98
51067;BME280;37112;45.892;-123.962;2024-03-22T09:15:01;101379.34;;;9.83;92.94
51067;BME280;37112;45.892;-123.962;2024-03-22T09:17:14;101378.79;;;9.80;93.04
51067;BME280;37112;45.892;-123.962;2024-03-22T09:19:28;101379.36;;;9.79;93.34
51067;BME280;37112;45.892;-123.962;2024-03-22T09:21:40;101374.82;;;9.78;93.43
51067;BME280;37112;45.892;-123.962;2024-03-22T09:23:50;101369.00;;;9.77;93.43
51067;BME280;37112;45.892;-123.962;2024-03-22T09:26:04;101364.06;;;9.73;93.41
51067;BME280;37112;45.892;-123.962;2024-03-22T09:28:16;101368.90;;;9.72;93.63
51067;BME280;37112;45.892;-123.962;2024-03-22T09:30:31;101363.33;;;9.74;94.08
51067;BME280;37112;45.892;-123.962;2024-03-22T09:32:50;101362.98;;;9.77;94.08
51067;BME280;37112;45.892;-123.962;2024-03-22T09:35:04;101366.19;;;9.77;94.05
51067;BME280;37112;45.892;-123.962;2024-03-22T09:37:19;101370.27;;;9.77;93.85
51067;BME280;37112;45.892;-123.962;2024-03-22T09:39:32;101368.52;;;9.76;93.64
51067;BME280;37112;45.892;-123.962;2024-03-22T09:41:45;101364.65;;;9.75;93.59
51067;BME280;37112;45.892;-123.962;2024-03-22T09:44:00;101353.55;;;9.74;93.62
51067;BME280;37112;45.892;-123.962;2024-03-22T09:46:17;101341.81;;;9.71;93.44
51067;BME280;37112;45.892;-123.962;2024-03-22T09:48:31;101339.64;;;9.69;93.27
51067;BME280;37112;45.892;-123.962;2024-03-22T09:50:44;101337.69;;;9.66;93.18
51067;BME280;37112;45.892;-123.962;2024-03-22T09:52:58;101338.88;;;9.63;93.16
51067;BME280;37112;45.892;-123.962;2024-03-22T09:55:12;101339.34;;;9.62;93.21
51067;BME280;37112;45.892;-123.962;2024-03-22T09:57:25;101335.80;;;9.61;93.26
51067;BME280;37112;45.892;-123.962;2024-03-22T09:59:38;101337.52;;;9.60;93.30
51067;BME280;37112;45.892;-123.962;2024-03-22T10:01:52;101339.83;;;9.60;93.64
51067;BME280;37112;45.892;-123.962;2024-03-22T10:04:05;101339.64;;;9.60;93.81
51067;BME280;37112;45.892;-123.962;2024-03-22T10:06:18;101335.09;;;9.59;93.53
51067;BME280;37112;45.892;-123.962;2024-03-22T10:08:28;101325.26;;;9.57;93.80
51067;BME280;37112;45.892;-123.962;2024-03-22T10:10:42;101316.63;;;9.56;93.86
51067;BME280;37112;45.892;-123.962;2024-03-22T10:12:55;101312.84;;;9.54;93.75
51067;BME280;37112;45.892;-123.962;2024-03-22T10:15:08;101309.35;;;9.53;93.83
51067;BME280;37112;45.892;-123.962;2024-03-22T10:17:23;101304.27;;;9.52;93.96
51067;BME280;37112;45.892;-123.962;2024-03-22T10:19:41;101305.84;;;9.52;94.14
51067;BME280;37112;45.892;-123.962;2024-03-22T10:22:04;101303.17;;;9.52;94.24
51067;BME280;37112;45.892;-123.962;2024-03-22T10:24:17;101294.23;;;9.50;93.84
51067;BME280;37112;45.892;-123.962;2024-03-22T10:26:30;101282.62;;;9.48;93.99
51067;BME280;37112;45.892;-123.962;2024-03-22T10:28:49;101274.83;;;9.48;94.24
51067;BME280;37112;45.892;-123.962;2024-03-22T10:31:01;101271.02;;;9.50;94.57
51067;BME280;37112;45.892;-123.962;2024-03-22T10:33:16;101267.92;;;9.52;94.55
51067;BME280;37112;45.892;-123.962;2024-03-22T10:35:31;101264.17;;;9.52;94.55
51067;BME280;37112;45.892;-123.962;2024-03-22T10:37:44;101260.20;;;9.53;94.34
51067;BME280;37112;45.892;-123.962;2024-03-22T10:40:01;101254.23;;;9.52;94.22
51067;BME280;37112;45.892;-123.962;2024-03-22T10:42:18;101251.94;;;9.52;94.10
51067;BME280;37112;45.892;-123.962;2024-03-22T10:44:31;101249.84;;;9.52;94.28
51067;BME280;37112;45.892;-123.962;2024-03-22T10:46:46;101246.27;;;9.52;94.44
51067;BME280;37112;45.892;-123.962;2024-03-22T10:48:59;101244.27;;;9.53;94.60
51067;BME280;37112;45.892;-123.962;2024-03-22T10:51:15;101234.80;;;9.54;94.68
51067;BME280;37112;45.892;-123.962;2024-03-22T10:53:31;101224.72;;;9.54;94.59
51067;BME280;37112;45.892;-123.962;2024-03-22T10:55:46;101214.52;;;9.53;94.54
51067;BME280;37112;45.892;-123.962;2024-03-22T10:58:00;101211.50;;;9.52;94.65
51067;BME280;37112;45.892;-123.962;2024-03-22T11:00:14;101203.33;;;9.53;94.74
51067;BME280;37112;45.892;-123.962;2024-03-22T11:02:30;101194.65;;;9.53;94.73
51067;BME280;37112;45.892;-123.962;2024-03-22T11:04:43;101185.06;;;9.53;94.77
51067;BME280;37112;45.892;-123.962;2024-03-22T11:07:05;101184.88;;;9.53;94.76
51067;BME280;37112;45.892;-123.962;2024-03-22T11:09:23;101173.15;;;9.54;94.81
51067;BME280;37112;45.892;-123.962;2024-03-22T11:11:37;101169.58;;;9.54;94.99
51067;BME280;37112;45.892;-123.962;2024-03-22T11:13:56;101164.30;;;9.53;94.89
51067;BME280;37112;45.892;-123.962;2024-03-22T11:16:12;101154.21;;;9.53;94.95
51067;BME280;37112;45.892;-123.962;2024-03-22T11:18:26;101150.13;;;9.53;95.06
51067;BME280;37112;45.892;-123.962;2024-03-22T11:20:40;101143.71;;;9.54;95.21
51067;BME280;37112;45.892;-123.962;2024-03-22T11:22:55;101130.88;;;9.55;95.52
51067;BME280;37112;45.892;-123.962;2024-03-22T11:25:08;101124.95;;;9.56;95.51
51067;BME280;37112;45.892;-123.962;2024-03-22T11:27:21;101115.48;;;9.58;95.58
51067;BME280;37112;45.892;-123.962;2024-03-22T11:29:34;101106.43;;;9.58;95.37
51067;BME280;37112;45.892;-123.962;2024-03-22T11:31:51;101093.35;;;9.57;95.32
51067;BME280;37112;45.892;-123.962;2024-03-22T11:34:04;101086.27;;;9.57;95.30
51067;BME280;37112;45.892;-123.962;2024-03-22T11:36:17;101075.29;;;9.57;95.20
51067;BME280;37112;45.892;-123.962;2024-03-22T11:38:27;101062.20;;;9.56;95.02
51067;BME280;37112;45.892;-123.962;2024-03-22T11:40:40;101056.72;;;9.53;95.13
51067;BME280;37112;45.892;-123.962;2024-03-22T11:42:55;101057.21;;;9.53;95.34
51067;BME280;37112;45.892;-123.962;2024-03-22T11:45:10;101054.74;;;9.53;95.24